sensor_id;sensor_type;location;lat;lon;timestamp;pressure;altitude;pressure_sealevel;temperature
64904;BMP280;51401;48.882;12.598;2024-01-16T00:00:28;64177.81;;;-137.53
64904;BMP280;51401;48.882;12.598;2024-01-16T00:02:57;64177.81;;;-137.53
64904;BMP280;51401;48.882;12.598;2024-01-16T00:05:22;64183.78;;;-137.53
64904;BMP280;51401;48.882;12.598;2024-01-16T00:07:47;64177.81;;;-137.53
64904;BMP280;51401;48.882;12.598;2024-01-16T00:10:12;64179.81;;;-137.53
64904;BMP280;51401;48.882;12.598;2024-01-16T00:12:38;64177.81;;;-137.53
64904;BMP280;51401;48.882;12.598;2024-01-16T00:15:05;64179.81;;;-137.53
64904;BMP280;51401;48.882;12.598;2024-01-16T00:17:31;64179.81;;;-137.53
64904;BMP280;51401;48.882;12.598;2024-01-16T00:19:56;64175.84;;;-137.53
64904;BMP280;51401;48.882;12.598;2024-01-16T00:22:26;64179.81;;;-137.53
64904;BMP280;51401;48.882;12.598;2024-01-16T00:24:51;64177.81;;;-137.53
64904;BMP280;51401;48.882;12.598;2024-01-16T00:27:16;64179.81;;;-137.53
64904;BMP280;51401;48.882;12.598;2024-01-16T00:29:42;64175.84;;;-137.53
64904;BMP280;51401;48.882;12.598;2024-01-16T00:32:07;64179.81;;;-137.53
64904;BMP280;51401;48.882;12.598;2024-01-16T00:34:32;64179.81;;;-137.53
64904;BMP280;51401;48.882;12.598;2024-01-16T00:36:58;64179.81;;;-137.53
64904;BMP280;51401;48.882;12.598;2024-01-16T00:39:23;64175.84;;;-137.53
64904;BMP280;51401;48.882;12.598;2024-01-16T00:41:48;64175.84;;;-137.53
64904;BMP280;51401;48.882;12.598;2024-01-16T00:44:13;64175.84;;;-137.53
64904;BMP280;51401;48.882;12.598;2024-01-16T00:46:39;64173.84;;;-137.53
64904;BMP280;51401;48.882;12.598;2024-01-16T00:49:05;64175.84;;;-137.53
64904;BMP280;51401;48.882;12.598;2024-01-16T00:51:30;64177.81;;;-137.53
64904;BMP280;51401;48.882;12.598;2024-01-16T00:53:55;64179.81;;;-137.53
64904;BMP280;51401;48.882;12.598;2024-01-16T00:56:20;64179.81;;;-137.53
64904;BMP280;51401;48.882;12.598;2024-01-16T00:58:46;64177.81;;;-137.53
64904;BMP280;51401;48.882;12.598;2024-01-16T01:01:11;64177.81;;;-137.53
64904;BMP280;51401;48.882;12.598;2024-01-16T01:03:36;64175.84;;;-137.53
64904;BMP280;51401;48.882;12.598;2024-01-16T01:06:02;64175.84;;;-137.53
64904;BMP280;51401;48.882;12.598;2024-01-16T01:08:27;64183.78;;;-137.53
64904;BMP280;51401;48.882;12.598;2024-01-16T01:10:53;64179.81;;;-137.53
64904;BMP280;51401;48.882;12.598;2024-01-16T01:13:18;64179.81;;;-137.53
64904;BMP280;51401;48.882;12.598;2024-01-16T01:15:44;64181.78;;;-137.53
64904;BMP280;51401;48.882;12.598;2024-01-16T01:18:09;64175.84;;;-137.53
64904;BMP280;51401;48.882;12.598;2024-01-16T01:20:34;64179.81;;;-137.53
64904;BMP280;51401;48.882;12.598;2024-01-16T01:23:00;64171.84;;;-137.53
64904;BMP280;51401;48.882;12.598;2024-01-16T01:25:25;64183.78;;;-137.53
64904;BMP280;51401;48.882;12.598;2024-01-16T01:27:51;64177.81;;;-137.53
64904;BMP280;51401;48.882;12.598;2024-01-16T01:30:17;64179.81;;;-137.53
64904;BMP280;51401;48.882;12.598;2024-01-16T01:32:42;64177.81;;;-137.53
64904;BMP280;51401;48.882;12.598;2024-01-16T01:35:09;64175.84;;;-137.53
64904;BMP280;51401;48.882;12.598;2024-01-16T01:37:35;64177.81;;;-137.53
64904;BMP280;51401;48.882;12.598;2024-01-16T01:40:01;64175.84;;;-137.53
64904;BMP280;51401;48.882;12.598;2024-01-16T01:42:26;64179.81;;;-137.53
64904;BMP280;51401;48.882;12.598;2024-01-16T01:44:51;64175.84;;;-137.53
64904;BMP280;51401;48.882;12.598;2024-01-16T01:47:16;64179.81;;;-137.53
64904;BMP280;51401;48.882;12.598;2024-01-16T01:49:42;64175.84;;;-137.53
64904;BMP280;51401;48.882;12.598;2024-01-16T01:52:08;64175.84;;;-137.53
64904;BMP280;51401;48.882;12.598;2024-01-16T01:54:37;64175.84;;;-137.53
64904;BMP280;51401;48.882;12.598;2024-01-16T01:57:04;64175.84;;;-137.53
64904;BMP280;51401;48.882;12.598;2024-01-16T01:59:30;64179.81;;;-137.53
64904;BMP280;51401;48.882;12.598;2024-01-16T02:01:56;64181.78;;;-137.53
64904;BMP280;51401;48.882;12.598;2024-01-16T02:04:22;64177.81;;;-137.53
64904;BMP280;51401;48.882;12.598;2024-01-16T02:06:48;64177.81;;;-137.53
64904;BMP280;51401;48.882;12.598;2024-01-16T02:09:13;64175.84;;;-137.53
64904;BMP280;51401;48.882;12.598;2024-01-16T02:11:40;64177.81;;;-137.53
64904;BMP280;51401;48.882;12.598;2024-01-16T02:14:06;64179.81;;;-137.53
64904;BMP280;51401;48.882;12.598;2024-01-16T02:16:36;64175.84;;;-137.53
64904;BMP280;51401;48.882;12.598;2024-01-16T02:19:05;64177.81;;;-137.53
64904;BMP280;51401;48.882;12.598;2024-01-16T02:21:36;64179.81;;;-137.53
64904;BMP280;51401;48.882;12.598;2024-01-16T02:24:03;64177.81;;;-137.53
64904;BMP280;51401;48.882;12.598;2024-01-16T02:26:30;64179.81;;;-137.53
64904;BMP280;51401;48.882;12.598;2024-01-16T02:28:55;64177.81;;;-137.53
64904;BMP280;51401;48.882;12.598;2024-01-16T02:31:21;64177.81;;;-137.53
64904;BMP280;51401;48.882;12.598;2024-01-16T02:33:46;64175.84;;;-137.53
64904;BMP280;51401;48.882;12.598;2024-01-16T02:36:12;64175.84;;;-137.53
64904;BMP280;51401;48.882;12.598;2024-01-16T02:38:37;64177.81;;;-137.53
64904;BMP280;51401;48.882;12.598;2024-01-16T02:41:03;64179.81;;;-137.53
64904;BMP280;51401;48.882;12.598;2024-01-16T02:43:29;64179.81;;;-137.53
64904;BMP280;51401;48.882;12.598;2024-01-16T02:45:54;64175.84;;;-137.53
64904;BMP280;51401;48.882;12.598;2024-01-16T02:48:20;64175.84;;;-137.53
64904;BMP280;51401;48.882;12.598;2024-01-16T02:50:45;64175.84;;;-137.53
64904;BMP280;51401;48.882;12.598;2024-01-16T02:53:11;64175.84;;;-137.53
64904;BMP280;51401;48.882;12.598;2024-01-16T02:55:36;64179.81;;;-137.53
64904;BMP280;51401;48.882;12.598;2024-01-16T02:58:01;64175.84;;;-137.53
64904;BMP280;51401;48.882;12.598;2024-01-16T03:00:28;64175.84;;;-137.53
64904;BMP280;51401;48.882;12.598;2024-01-16T03:02:54;64175.84;;;-137.53
64904;BMP280;51401;48.882;12.598;2024-01-16T03:05:20;64179.81;;;-137.53
64904;BMP280;51401;48.882;12.598;2024-01-16T03:07:45;64177.81;;;-137.53
64904;BMP280;51401;48.882;12.598;2024-01-16T03:10:10;64177.81;;;-137.53
64904;BMP280;51401;48.882;12.598;2024-01-16T03:12:36;64175.84;;;-137.53
64904;BMP280;51401;48.882;12.598;2024-01-16T03:15:01;64177.81;;;-137.53
64904;BMP280;51401;48.882;12.598;2024-01-16T03:17:26;64171.84;;;-137.53
64904;BMP280;51401;48.882;12.598;2024-01-16T03:19:52;64179.81;;;-137.53
64904;BMP280;51401;48.882;12.598;2024-01-16T03:22:17;64179.81;;;-137.53
64904;BMP280;51401;48.882;12.598;2024-01-16T03:24:43;64175.84;;;-137.53
64904;BMP280;51401;48.882;12.598;2024-01-16T03:27:08;64175.84;;;-137.53
64904;BMP280;51401;48.882;12.598;2024-01-16T03:29:34;64175.84;;;-137.53
64904;BMP280;51401;48.882;12.598;2024-01-16T03:31:59;64179.81;;;-137.53
64904;BMP280;51401;48.882;12.598;2024-01-16T03:34:26;64177.81;;;-137.53
64904;BMP280;51401;48.882;12.598;2024-01-16T03:36:51;64179.81;;;-137.53
64904;BMP280;51401;48.882;12.598;2024-01-16T03:39:16;64177.81;;;-137.53
64904;BMP280;51401;48.882;12.598;2024-01-16T03:41:42;64175.84;;;-137.53
64904;BMP280;51401;48.882;12.598;2024-01-16T03:44:07;64175.84;;;-137.53
64904;BMP280;51401;48.882;12.598;2024-01-16T03:46:32;64175.84;;;-137.53
64904;BMP280;51401;48.882;12.598;2024-01-16T03:48:58;64177.81;;;-137.53
64904;BMP280;51401;48.882;12.598;2024-01-16T03:51:23;64179.81;;;-137.53
64904;BMP280;51401;48.882;12.598;2024-01-16T03:53:48;64179.81;;;-137.53
64904;BMP280;51401;48.882;12.598;2024-01-16T03:56:14;64179.81;;;-137.53
64904;BMP280;51401;48.882;12.598;2024-01-16T03:58:40;64175.84;;;-137.53
64904;BMP280;51401;48.882;12.598;2024-01-16T04:01:06;64177.81;;;-137.53
64904;BMP280;51401;48.882;12.598;2024-01-16T04:03:32;64177.81;;;-137.53
64904;BMP280;51401;48.882;12.598;2024-01-16T04:05:57;64177.81;;;-137.53
64904;BMP280;51401;48.882;12.598;2024-01-16T04:08:22;64179.81;;;-137.53
64904;BMP280;51401;48.882;12.598;2024-01-16T04:10:48;64177.81;;;-137.53
64904;BMP280;51401;48.882;12.598;2024-01-16T04:13:13;64175.84;;;-137.53
64904;BMP280;51401;48.882;12.598;2024-01-16T04:15:39;64177.81;;;-137.53
64904;BMP280;51401;48.882;12.598;2024-01-16T04:18:04;64177.81;;;-137.53
64904;BMP280;51401;48.882;12.598;2024-01-16T04:20:30;64175.84;;;-137.53
64904;BMP280;51401;48.882;12.598;2024-01-16T04:22:56;64177.81;;;-137.53
64904;BMP280;51401;48.882;12.598;2024-01-16T04:25:21;64181.78;;;-137.53
64904;BMP280;51401;48.882;12.598;2024-01-16T04:27:46;64179.81;;;-137.53
64904;BMP280;51401;48.882;12.598;2024-01-16T04:30:12;64177.81;;;-137.53
64904;BMP280;51401;48.882;12.598;2024-01-16T04:32:37;64177.81;;;-137.53
64904;BMP280;51401;48.882;12.598;2024-01-16T04:35:03;64183.78;;;-137.53
64904;BMP280;51401;48.882;12.598;2024-01-16T04:37:29;64177.81;;;-137.53
64904;BMP280;51401;48.882;12.598;2024-01-16T04:39:54;64177.81;;;-137.53
64904;BMP280;51401;48.882;12.598;2024-01-16T04:42:19;64175.84;;;-137.53
64904;BMP280;51401;48.882;12.598;2024-01-16T04:44:45;64181.78;;;-137.53
64904;BMP280;51401;48.882;12.598;2024-01-16T04:47:10;64179.81;;;-137.53
64904;BMP280;51401;48.882;12.598;2024-01-16T04:49:36;64181.78;;;-137.53
64904;BMP280;51401;48.882;12.598;2024-01-16T04:52:02;64177.81;;;-137.53
64904;BMP280;51401;48.882;12.598;2024-01-16T04:54:28;64179.81;;;-137.53
64904;BMP280;51401;48.882;12.598;2024-01-16T04:56:54;64177.81;;;-137.53
64904;BMP280;51401;48.882;12.598;2024-01-16T04:59:19;64175.84;;;-137.53
64904;BMP280;51401;48.882;12.598;2024-01-16T05:01:44;64177.81;;;-137.53
64904;BMP280;51401;48.882;12.598;2024-01-16T05:04:10;64179.81;;;-137.53
64904;BMP280;51401;48.882;12.598;2024-01-16T05:06:35;64177.81;;;-137.53
64904;BMP280;51401;48.882;12.598;2024-01-16T05:09:00;64179.81;;;-137.53
64904;BMP280;51401;48.882;12.598;2024-01-16T05:11:26;64179.81;;;-137.53
64904;BMP280;51401;48.882;12.598;2024-01-16T05:13:51;64177.81;;;-137.53
64904;BMP280;51401;48.882;12.598;2024-01-16T05:16:23;64175.84;;;-137.53
64904;BMP280;51401;48.882;12.598;2024-01-16T05:18:48;64179.81;;;-137.53
64904;BMP280;51401;48.882;12.598;2024-01-16T05:21:14;64177.81;;;-137.53
64904;BMP280;51401;48.882;12.598;2024-01-16T05:23:39;64179.81;;;-137.53
64904;BMP280;51401;48.882;12.598;2024-01-16T05:26:05;64175.84;;;-137.53
64904;BMP280;51401;48.882;12.598;2024-01-16T05:28:30;64175.84;;;-137.53
64904;BMP280;51401;48.882;12.598;2024-01-16T05:30:55;64179.81;;;-137.53
64904;BMP280;51401;48.882;12.598;2024-01-16T05:33:20;64181.78;;;-137.53
64904;BMP280;51401;48.882;12.598;2024-01-16T05:35:46;64179.81;;;-137.53
64904;BMP280;51401;48.882;12.598;2024-01-16T05:38:11;64173.84;;;-137.53
64904;BMP280;51401;48.882;12.598;2024-01-16T05:40:37;64179.81;;;-137.53
64904;BMP280;51401;48.882;12.598;2024-01-16T05:43:02;64179.81;;;-137.53
64904;BMP280;51401;48.882;12.598;2024-01-16T05:45:28;64179.81;;;-137.53
64904;BMP280;51401;48.882;12.598;2024-01-16T05:47:53;64175.84;;;-137.53
64904;BMP280;51401;48.882;12.598;2024-01-16T05:50:19;64179.81;;;-137.53
64904;BMP280;51401;48.882;12.598;2024-01-16T05:52:44;64181.78;;;-137.53
64904;BMP280;51401;48.882;12.598;2024-01-16T05:55:09;64177.81;;;-137.53
64904;BMP280;51401;48.882;12.598;2024-01-16T05:57:36;64179.81;;;-137.53
64904;BMP280;51401;48.882;12.598;2024-01-16T06:00:02;64183.78;;;-137.53
64904;BMP280;51401;48.882;12.598;2024-01-16T06:02:28;64179.81;;;-137.53
64904;BMP280;51401;48.882;12.598;2024-01-16T06:04:54;64177.81;;;-137.53
64904;BMP280;51401;48.882;12.598;2024-01-16T06:07:19;64175.84;;;-137.53
64904;BMP280;51401;48.882;12.598;2024-01-16T06:09:45;64181.78;;;-137.53
64904;BMP280;51401;48.882;12.598;2024-01-16T06:12:10;64179.81;;;-137.53
64904;BMP280;51401;48.882;12.598;2024-01-16T06:14:37;64179.81;;;-137.53
64904;BMP280;51401;48.882;12.598;2024-01-16T06:17:02;64181.78;;;-137.53
64904;BMP280;51401;48.882;12.598;2024-01-16T06:19:30;64177.81;;;-137.53
64904;BMP280;51401;48.882;12.598;2024-01-16T06:21:55;64179.81;;;-137.53
64904;BMP280;51401;48.882;12.598;2024-01-16T06:24:20;64175.84;;;-137.53
64904;BMP280;51401;48.882;12.598;2024-01-16T06:26:46;64179.81;;;-137.53
64904;BMP280;51401;48.882;12.598;2024-01-16T06:29:11;64179.81;;;-137.53
64904;BMP280;51401;48.882;12.598;2024-01-16T06:31:37;64177.81;;;-137.53
64904;BMP280;51401;48.882;12.598;2024-01-16T06:34:03;64179.81;;;-137.53
64904;BMP280;51401;48.882;12.598;2024-01-16T06:36:28;64179.81;;;-137.53
64904;BMP280;51401;48.882;12.598;2024-01-16T06:38:53;64181.78;;;-137.53
64904;BMP280;51401;48.882;12.598;2024-01-16T06:41:19;64179.81;;;-137.53
64904;BMP280;51401;48.882;12.598;2024-01-16T06:43:44;64185.75;;;-137.53
64904;BMP280;51401;48.882;12.598;2024-01-16T06:46:09;64183.78;;;-137.53
64904;BMP280;51401;48.882;12.598;2024-01-16T06:48:35;64179.81;;;-137.53
64904;BMP280;51401;48.882;12.598;2024-01-16T06:51:02;64179.81;;;-137.53
64904;BMP280;51401;48.882;12.598;2024-01-16T06:53:27;64179.81;;;-137.53
64904;BMP280;51401;48.882;12.598;2024-01-16T06:55:52;64179.81;;;-137.53
64904;BMP280;51401;48.882;12.598;2024-01-16T06:58:17;64179.81;;;-137.53
64904;BMP280;51401;48.882;12.598;2024-01-16T07:00:43;64179.81;;;-137.53
64904;BMP280;51401;48.882;12.598;2024-01-16T07:03:09;64181.78;;;-137.53
64904;BMP280;51401;48.882;12.598;2024-01-16T07:05:34;64179.81;;;-137.53
64904;BMP280;51401;48.882;12.598;2024-01-16T07:08:00;64183.78;;;-137.53
64904;BMP280;51401;48.882;12.598;2024-01-16T07:10:25;64179.81;;;-137.53
64904;BMP280;51401;48.882;12.598;2024-01-16T07:12:51;64177.81;;;-137.53
64904;BMP280;51401;48.882;12.598;2024-01-16T07:15:17;64177.81;;;-137.53
64904;BMP280;51401;48.882;12.598;2024-01-16T07:17:42;64175.84;;;-137.53
64904;BMP280;51401;48.882;12.598;2024-01-16T07:20:08;64179.81;;;-137.53
64904;BMP280;51401;48.882;12.598;2024-01-16T07:22:33;64179.81;;;-137.53
64904;BMP280;51401;48.882;12.598;2024-01-16T07:25:02;64179.81;;;-137.53
64904;BMP280;51401;48.882;12.598;2024-01-16T07:27:27;64179.81;;;-137.53
64904;BMP280;51401;48.882;12.598;2024-01-16T07:29:52;64181.78;;;-137.53
64904;BMP280;51401;48.882;12.598;2024-01-16T07:32:17;64183.78;;;-137.53
64904;BMP280;51401;48.882;12.598;2024-01-16T07:34:43;64183.78;;;-137.53
64904;BMP280;51401;48.882;12.598;2024-01-16T07:37:09;64179.81;;;-137.53
64904;BMP280;51401;48.882;12.598;2024-01-16T07:39:34;64177.81;;;-137.53
64904;BMP280;51401;48.882;12.598;2024-01-16T07:41:59;64179.81;;;-137.53
64904;BMP280;51401;48.882;12.598;2024-01-16T07:44:25;64181.78;;;-137.53
64904;BMP280;51401;48.882;12.598;2024-01-16T07:46:50;64179.81;;;-137.53
64904;BMP280;51401;48.882;12.598;2024-01-16T07:49:15;64183.78;;;-137.53
64904;BMP280;51401;48.882;12.598;2024-01-16T07:51:41;64183.78;;;-137.53
64904;BMP280;51401;48.882;12.598;2024-01-16T07:54:08;64179.81;;;-137.53
64904;BMP280;51401;48.882;12.598;2024-01-16T07:56:37;64179.81;;;-137.53
64904;BMP280;51401;48.882;12.598;2024-01-16T07:59:03;64183.78;;;-137.53
64904;BMP280;51401;48.882;12.598;2024-01-16T08:01:29;64179.81;;;-137.53
64904;BMP280;51401;48.882;12.598;2024-01-16T08:03:55;64177.81;;;-137.53
64904;BMP280;51401;48.882;12.598;2024-01-16T08:06:20;64179.81;;;-137.53
64904;BMP280;51401;48.882;12.598;2024-01-16T08:08:46;64177.81;;;-137.53
64904;BMP280;51401;48.882;12.598;2024-01-16T08:11:11;64179.81;;;-137.53
64904;BMP280;51401;48.882;12.598;2024-01-16T08:13:37;64177.81;;;-137.53
64904;BMP280;51401;48.882;12.598;2024-01-16T08:16:02;64177.81;;;-137.53
64904;BMP280;51401;48.882;12.598;2024-01-16T08:18:27;64179.81;;;-137.53
64904;BMP280;51401;48.882;12.598;2024-01-16T08:20:53;64179.81;;;-137.53
64904;BMP280;51401;48.882;12.598;2024-01-16T08:23:21;64177.81;;;-137.53
64904;BMP280;51401;48.882;12.598;2024-01-16T08:25:46;64181.78;;;-137.53
64904;BMP280;51401;48.882;12.598;2024-01-16T08:28:11;64179.81;;;-137.53
64904;BMP280;51401;48.882;12.598;2024-01-16T08:30:37;64183.78;;;-137.53
64904;BMP280;51401;48.882;12.598;2024-01-16T08:33:02;64177.81;;;-137.53
64904;BMP280;51401;48.882;12.598;2024-01-16T08:35:27;64175.84;;;-137.53
64904;BMP280;51401;48.882;12.598;2024-01-16T08:37:53;64177.81;;;-137.53
64904;BMP280;51401;48.882;12.598;2024-01-16T08:40:18;64175.84;;;-137.53
64904;BMP280;51401;48.882;12.598;2024-01-16T08:42:43;64179.81;;;-137.53
64904;BMP280;51401;48.882;12.598;2024-01-16T08:45:09;64175.84;;;-137.53
64904;BMP280;51401;48.882;12.598;2024-01-16T08:47:35;64179.81;;;-137.53
64904;BMP280;51401;48.882;12.598;2024-01-16T08:50:00;64179.81;;;-137.53
64904;BMP280;51401;48.882;12.598;2024-01-16T08:52:25;64175.84;;;-137.53
64904;BMP280;51401;48.882;12.598;2024-01-16T08:54:51;64175.84;;;-137.53
64904;BMP280;51401;48.882;12.598;2024-01-16T08:57:16;64175.84;;;-137.53
64904;BMP280;51401;48.882;12.598;2024-01-16T08:59:41;64179.81;;;-137.53
64904;BMP280;51401;48.882;12.598;2024-01-16T09:02:07;64173.84;;;-137.53
64904;BMP280;51401;48.882;12.598;2024-01-16T09:04:32;64171.84;;;-137.53
64904;BMP280;51401;48.882;12.598;2024-01-16T09:06:58;64177.81;;;-137.53
64904;BMP280;51401;48.882;12.598;2024-01-16T09:09:23;64177.81;;;-137.53
64904;BMP280;51401;48.882;12.598;2024-01-16T09:11:49;64179.81;;;-137.53
64904;BMP280;51401;48.882;12.598;2024-01-16T09:14:14;64175.84;;;-137.53
64904;BMP280;51401;48.882;12.598;2024-01-16T09:16:40;64175.84;;;-137.53
64904;BMP280;51401;48.882;12.598;2024-01-16T09:19:05;64175.84;;;-137.53
64904;BMP280;51401;48.882;12.598;2024-01-16T09:21:31;64175.84;;;-137.53
64904;BMP280;51401;48.882;12.598;2024-01-16T09:23:56;64179.81;;;-137.53
64904;BMP280;51401;48.882;12.598;2024-01-16T09:26:22;64179.81;;;-137.53
64904;BMP280;51401;48.882;12.598;2024-01-16T09:28:47;64175.84;;;-137.53
64904;BMP280;51401;48.882;12.598;2024-01-16T09:31:14;64173.84;;;-137.53
64904;BMP280;51401;48.882;12.598;2024-01-16T09:33:40;64175.84;;;-137.53
64904;BMP280;51401;48.882;12.598;2024-01-16T09:36:05;64179.81;;;-137.53
64904;BMP280;51401;48.882;12.598;2024-01-16T09:38:30;64175.84;;;-137.53
64904;BMP280;51401;48.882;12.598;2024-01-16T09:40:56;64175.84;;;-137.53
64904;BMP280;51401;48.882;12.598;2024-01-16T09:43:26;64171.84;;;-137.53
64904;BMP280;51401;48.882;12.598;2024-01-16T09:45:52;64175.84;;;-137.53
64904;BMP280;51401;48.882;12.598;2024-01-16T09:48:18;64177.81;;;-137.53
64904;BMP280;51401;48.882;12.598;2024-01-16T09:50:43;64179.81;;;-137.53
64904;BMP280;51401;48.882;12.598;2024-01-16T09:53:09;64175.84;;;-137.53
64904;BMP280;51401;48.882;12.598;2024-01-16T09:55:35;64171.84;;;-137.53
64904;BMP280;51401;48.882;12.598;2024-01-16T09:58:00;64175.84;;;-137.53
64904;BMP280;51401;48.882;12.598;2024-01-16T10:00:27;64173.84;;;-137.53
64904;BMP280;51401;48.882;12.598;2024-01-16T10:02:52;64175.84;;;-137.53
64904;BMP280;51401;48.882;12.598;2024-01-16T10:05:18;64177.81;;;-137.53
64904;BMP280;51401;48.882;12.598;2024-01-16T10:07:43;64175.84;;;-137.53
64904;BMP280;51401;48.882;12.598;2024-01-16T10:10:12;64175.84;;;-137.53
64904;BMP280;51401;48.882;12.598;2024-01-16T10:12:38;64173.84;;;-137.53
64904;BMP280;51401;48.882;12.598;2024-01-16T10:15:06;64175.84;;;-137.53
64904;BMP280;51401;48.882;12.598;2024-01-16T10:17:37;64175.84;;;-137.53
64904;BMP280;51401;48.882;12.598;2024-01-16T10:20:03;64175.84;;;-137.53
64904;BMP280;51401;48.882;12.598;2024-01-16T10:22:29;64175.84;;;-137.53
64904;BMP280;51401;48.882;12.598;2024-01-16T10:25:08;64173.84;;;-137.53
64904;BMP280;51401;48.882;12.598;2024-01-16T10:27:35;64171.84;;;-137.53
64904;BMP280;51401;48.882;12.598;2024-01-16T10:30:02;64173.84;;;-137.53
64904;BMP280;51401;48.882;12.598;2024-01-16T10:32:30;64171.84;;;-137.53
64904;BMP280;51401;48.882;12.598;2024-01-16T10:35:09;64177.81;;;-137.53
64904;BMP280;51401;48.882;12.598;2024-01-16T10:37:49;64169.88;;;-137.53
64904;BMP280;51401;48.882;12.598;2024-01-16T10:42:45;64175.84;;;-137.53
64904;BMP280;51401;48.882;12.598;2024-01-16T10:45:18;64173.84;;;-137.53
64904;BMP280;51401;48.882;12.598;2024-01-16T10:47:46;64175.84;;;-137.53
64904;BMP280;51401;48.882;12.598;2024-01-16T10:50:11;64175.84;;;-137.53
64904;BMP280;51401;48.882;12.598;2024-01-16T10:52:49;64171.84;;;-137.53
64904;BMP280;51401;48.882;12.598;2024-01-16T10:55:20;64175.84;;;-137.53
64904;BMP280;51401;48.882;12.598;2024-01-16T10:57:50;64175.84;;;-137.53
64904;BMP280;51401;48.882;12.598;2024-01-16T11:00:23;64173.84;;;-137.53
64904;BMP280;51401;48.882;12.598;2024-01-16T11:03:04;64171.84;;;-137.53
64904;BMP280;51401;48.882;12.598;2024-01-16T11:05:31;64171.84;;;-137.53
64904;BMP280;51401;48.882;12.598;2024-01-16T11:07:59;64173.84;;;-137.53
64904;BMP280;51401;48.882;12.598;2024-01-16T11:10:27;64175.84;;;-137.53
64904;BMP280;51401;48.882;12.598;2024-01-16T11:12:53;64171.84;;;-137.53
64904;BMP280;51401;48.882;12.598;2024-01-16T11:15:19;64173.84;;;-137.53
64904;BMP280;51401;48.882;12.598;2024-01-16T11:17:45;64173.84;;;-137.53
64904;BMP280;51401;48.882;12.598;2024-01-16T11:20:12;64173.84;;;-137.53
64904;BMP280;51401;48.882;12.598;2024-01-16T11:22:40;64175.84;;;-137.53
64904;BMP280;51401;48.882;12.598;2024-01-16T11:25:13;64171.84;;;-137.53
64904;BMP280;51401;48.882;12.598;2024-01-16T11:27:40;64175.84;;;-137.53
64904;BMP280;51401;48.882;12.598;2024-01-16T11:30:07;64169.88;;;-137.53
64904;BMP280;51401;48.882;12.598;2024-01-16T11:32:34;64173.84;;;-137.53
64904;BMP280;51401;48.882;12.598;2024-01-16T11:35:01;64169.88;;;-137.53
64904;BMP280;51401;48.882;12.598;2024-01-16T11:37:27;64175.84;;;-137.53
64904;BMP280;51401;48.882;12.598;2024-01-16T11:40:20;64177.81;;;-137.53
64904;BMP280;51401;48.882;12.598;2024-01-16T11:42:46;64173.84;;;-137.53
64904;BMP280;51401;48.882;12.598;2024-01-16T11:48:16;64171.84;;;-137.53
64904;BMP280;51401;48.882;12.598;2024-01-16T11:50:42;64171.84;;;-137.53
64904;BMP280;51401;48.882;12.598;2024-01-16T11:53:08;64171.84;;;-137.53
64904;BMP280;51401;48.882;12.598;2024-01-16T11:55:35;64173.84;;;-137.53
64904;BMP280;51401;48.882;12.598;2024-01-16T12:00:52;64171.84;;;-137.53
64904;BMP280;51401;48.882;12.598;2024-01-16T12:03:18;64171.84;;;-137.53
64904;BMP280;51401;48.882;12.598;2024-01-16T12:05:57;64171.84;;;-137.53
64904;BMP280;51401;48.882;12.598;2024-01-16T12:08:23;64165.91;;;-137.53
64904;BMP280;51401;48.882;12.598;2024-01-16T12:10:52;64171.84;;;-137.53
64904;BMP280;51401;48.882;12.598;2024-01-16T12:13:17;64167.88;;;-137.53
64904;BMP280;51401;48.882;12.598;2024-01-16T12:15:43;64171.84;;;-137.53
64904;BMP280;51401;48.882;12.598;2024-01-16T12:18:08;64173.84;;;-137.53
64904;BMP280;51401;48.882;12.598;2024-01-16T12:20:35;64171.84;;;-137.53
64904;BMP280;51401;48.882;12.598;2024-01-16T12:23:05;64171.84;;;-137.53
64904;BMP280;51401;48.882;12.598;2024-01-16T12:25:31;64171.84;;;-137.53
64904;BMP280;51401;48.882;12.598;2024-01-16T12:28:02;64169.88;;;-137.53
64904;BMP280;51401;48.882;12.598;2024-01-16T12:30:35;64169.88;;;-137.53
64904;BMP280;51401;48.882;12.598;2024-01-16T12:33:07;64167.88;;;-137.53
64904;BMP280;51401;48.882;12.598;2024-01-16T12:35:36;64171.84;;;-137.53
64904;BMP280;51401;48.882;12.598;2024-01-16T12:38:03;64171.84;;;-137.53
64904;BMP280;51401;48.882;12.598;2024-01-16T12:40:31;64169.88;;;-137.53
64904;BMP280;51401;48.882;12.598;2024-01-16T12:42:56;64165.91;;;-137.53
64904;BMP280;51401;48.882;12.598;2024-01-16T12:45:22;64171.84;;;-137.53
64904;BMP280;51401;48.882;12.598;2024-01-16T12:47:54;64169.88;;;-137.53
64904;BMP280;51401;48.882;12.598;2024-01-16T12:50:24;64169.88;;;-137.53
64904;BMP280;51401;48.882;12.598;2024-01-16T12:52:50;64167.88;;;-137.53
64904;BMP280;51401;48.882;12.598;2024-01-16T12:55:25;64167.88;;;-137.53
64904;BMP280;51401;48.882;12.598;2024-01-16T13:00:38;64171.84;;;-137.53
64904;BMP280;51401;48.882;12.598;2024-01-16T13:03:04;64171.84;;;-137.53
64904;BMP280;51401;48.882;12.598;2024-01-16T13:05:30;64171.84;;;-137.53
64904;BMP280;51401;48.882;12.598;2024-01-16T13:08:02;64169.88;;;-137.53
64904;BMP280;51401;48.882;12.598;2024-01-16T13:10:31;64171.84;;;-137.53
64904;BMP280;51401;48.882;12.598;2024-01-16T13:15:38;64169.88;;;-137.53
64904;BMP280;51401;48.882;12.598;2024-01-16T13:18:04;64175.84;;;-137.53
64904;BMP280;51401;48.882;12.598;2024-01-16T13:20:29;64171.84;;;-137.53
64904;BMP280;51401;48.882;12.598;2024-01-16T13:22:55;64169.88;;;-137.53
64904;BMP280;51401;48.882;12.598;2024-01-16T13:25:20;64171.84;;;-137.53
64904;BMP280;51401;48.882;12.598;2024-01-16T13:27:46;64169.88;;;-137.53
64904;BMP280;51401;48.882;12.598;2024-01-16T13:30:12;64169.88;;;-137.53
64904;BMP280;51401;48.882;12.598;2024-01-16T13:32:38;64169.88;;;-137.53
64904;BMP280;51401;48.882;12.598;2024-01-16T13:35:03;64173.84;;;-137.53
64904;BMP280;51401;48.882;12.598;2024-01-16T13:37:32;64171.84;;;-137.53
64904;BMP280;51401;48.882;12.598;2024-01-16T13:39:58;64171.84;;;-137.53